createdAt,value
2016-08-24T00:00:14.949Z,19.1
2016-08-24T00:01:15.638Z,19.01
2016-08-24T00:02:15.636Z,19.02
2016-08-24T00:03:15.629Z,19.05
2016-08-24T00:04:15.618Z,19.08
2016-08-24T00:05:16.326Z,19.08
2016-08-24T00:06:14.901Z,19.02
2016-08-24T00:07:15.596Z,19.06
2016-08-24T00:08:16.314Z,19.05
2016-08-24T00:09:15.586Z,18.99
2016-08-24T00:10:14.866Z,19.08
2016-08-24T00:11:14.867Z,19.01
2016-08-24T00:12:15.559Z,19.01
2016-08-24T00:13:15.548Z,19.08
2016-08-24T00:14:15.549Z,18.99
2016-08-24T00:15:16.248Z,19.02
2016-08-24T00:16:16.231Z,19.02
2016-08-24T00:17:16.239Z,19.05
2016-08-24T00:18:15.515Z,19.02
2016-08-24T00:19:15.512Z,19.06
2016-08-24T00:20:15.503Z,19.01
2016-08-24T00:21:15.488Z,18.99
2016-08-24T00:22:15.488Z,18.98
2016-08-24T00:23:15.484Z,19.02
2016-08-24T00:24:15.476Z,19.02
2016-08-24T00:25:15.475Z,18.99
2016-08-24T00:26:16.173Z,18.97
2016-08-24T00:27:15.438Z,18.99
2016-08-24T00:28:14.779Z,18.83
2016-08-24T00:29:15.426Z,18.95
2016-08-24T00:30:14.712Z,18.92
2016-08-24T00:31:14.708Z,18.87
2016-08-24T00:32:15.406Z,18.84
2016-08-24T00:33:15.402Z,18.91
2016-08-24T00:34:16.099Z,18.91
2016-08-24T00:35:14.680Z,18.79
2016-08-24T00:36:14.668Z,18.82
2016-08-24T00:37:15.374Z,18.79
2016-08-24T00:38:15.357Z,18.83
2016-08-24T00:39:14.694Z,18.83
2016-08-24T00:40:14.633Z,18.83
2016-08-24T00:41:16.042Z,18.79
2016-08-24T00:42:15.331Z,18.74
2016-08-24T00:43:14.613Z,18.8
2016-08-24T00:44:15.316Z,18.74
2016-08-24T00:45:15.310Z,18.77
2016-08-24T00:46:15.301Z,18.8
2016-08-24T00:47:15.292Z,18.83
2016-08-24T00:48:14.585Z,18.74
2016-08-24T00:49:14.564Z,18.73
2016-08-24T00:50:14.562Z,18.64
2016-08-24T00:51:15.259Z,18.68
2016-08-24T00:52:14.540Z,18.67
2016-08-24T00:53:15.951Z,18.64
2016-08-24T00:54:14.552Z,18.61
2016-08-24T00:55:15.226Z,18.68
2016-08-24T00:56:15.933Z,18.72
2016-08-24T00:57:15.210Z,18.65
2016-08-24T00:58:14.496Z,18.57
2016-08-24T00:59:15.213Z,18.61
2016-08-24T01:00:15.182Z,18.55
2016-08-24T01:01:15.205Z,18.55
2016-08-24T01:02:15.174Z,18.68
2016-08-24T01:03:15.870Z,18.55
2016-08-24T01:04:15.155Z,18.54
2016-08-24T01:05:14.436Z,18.57
2016-08-24T01:06:14.431Z,18.57
2016-08-24T01:07:15.144Z,18.61
2016-08-24T01:08:14.418Z,18.57
2016-08-24T01:09:14.405Z,18.57
2016-08-24T01:10:15.107Z,18.44
2016-08-24T01:11:14.390Z,18.52
2016-08-24T01:12:15.099Z,18.43
2016-08-24T01:13:15.800Z,18.5
2016-08-24T01:14:15.075Z,18.49
2016-08-24T01:15:14.363Z,18.4
2016-08-24T01:16:14.357Z,18.4
2016-08-24T01:17:15.053Z,18.4
2016-08-24T01:18:14.338Z,18.39
2016-08-24T01:19:15.747Z,18.43
2016-08-24T01:20:15.046Z,18.39
2016-08-24T01:21:15.026Z,18.4
2016-08-24T01:22:14.308Z,18.39
2016-08-24T01:23:15.009Z,18.36
2016-08-24T01:24:14.997Z,18.34
2016-08-24T01:25:14.279Z,18.37
2016-08-24T01:26:14.275Z,18.36
2016-08-24T01:27:14.973Z,18.25
2016-08-24T01:28:14.256Z,18.29
2016-08-24T01:29:14.247Z,18.28
2016-08-24T01:30:15.659Z,18.27
2016-08-24T01:31:14.234Z,18.24
2016-08-24T01:32:15.643Z,18.29
2016-08-24T01:33:14.214Z,18.25
2016-08-24T01:34:14.919Z,18.25
2016-08-24T01:35:14.205Z,18.22
2016-08-24T01:36:15.614Z,18.22
2016-08-24T01:37:14.193Z,18.31
2016-08-24T01:38:14.882Z,18.22
2016-08-24T01:39:14.873Z,18.17
2016-08-24T01:40:14.869Z,18.18
2016-08-24T01:41:14.861Z,18.17
2016-08-24T01:42:14.850Z,18.18
2016-08-24T01:43:15.564Z,18.18
2016-08-24T01:44:14.838Z,18.19
2016-08-24T01:45:14.831Z,18.15
2016-08-24T01:46:14.820Z,18.13
2016-08-24T01:47:15.516Z,18.17
2016-08-24T01:48:14.804Z,18.09
2016-08-24T01:49:14.796Z,18.12
2016-08-24T01:50:15.491Z,18.02
2016-08-24T01:51:14.072Z,18.12
2016-08-24T01:52:14.072Z,18.06
2016-08-24T01:53:14.763Z,18.02
2016-08-24T01:54:14.256Z,18.02
2016-08-24T01:55:14.751Z,17.92
2016-08-24T01:56:14.737Z,17.89
2016-08-24T01:57:14.732Z,17.88
2016-08-24T01:58:14.722Z,17.97
2016-08-24T01:59:14.717Z,17.84
2016-08-24T02:00:15.415Z,17.92
2016-08-24T02:01:14.698Z,17.87
2016-08-24T02:02:13.990Z,17.84
2016-08-24T02:03:14.691Z,17.91
2016-08-24T02:04:15.374Z,17.95
2016-08-24T02:05:14.663Z,17.87
2016-08-24T02:06:13.945Z,17.87
2016-08-24T02:07:13.937Z,17.92
2016-08-24T02:08:15.348Z,17.87
2016-08-24T02:09:13.925Z,17.84
2016-08-24T02:10:15.342Z,17.85
2016-08-24T02:11:15.325Z,17.78
2016-08-24T02:12:15.320Z,17.78
2016-08-24T02:13:15.310Z,17.76
2016-08-24T02:14:14.591Z,17.73
2016-08-24T02:15:13.875Z,17.78
2016-08-24T02:16:13.866Z,17.69
2016-08-24T02:17:13.857Z,17.79
2016-08-24T02:18:15.262Z,17.7
2016-08-24T02:19:13.842Z,17.64
2016-08-24T02:20:14.540Z,17.64
2016-08-24T02:21:13.827Z,17.66
2016-08-24T02:22:13.816Z,17.66
2016-08-24T02:23:13.808Z,17.57
2016-08-24T02:24:13.794Z,17.53
2016-08-24T02:25:13.790Z,17.54
2016-08-24T02:26:13.784Z,17.51
2016-08-24T02:27:13.791Z,17.5
2016-08-24T02:28:14.488Z,17.51
2016-08-24T02:29:13.758Z,17.54
2016-08-24T02:30:14.461Z,17.47
2016-08-24T02:31:14.444Z,17.53
2016-08-24T02:32:15.145Z,17.44
2016-08-24T02:33:14.438Z,17.43
2016-08-24T02:34:13.724Z,17.53
2016-08-24T02:35:14.413Z,17.46
2016-08-24T02:36:14.417Z,17.4
2016-08-24T02:37:14.395Z,17.4
2016-08-24T02:38:14.385Z,17.38
2016-08-24T02:39:14.394Z,17.38
2016-08-24T02:40:14.398Z,17.36
2016-08-24T02:41:13.659Z,17.43
2016-08-24T02:42:13.651Z,17.36
2016-08-24T02:43:15.057Z,17.36
2016-08-24T02:44:13.631Z,17.3
2016-08-24T02:45:14.331Z,17.4
2016-08-24T02:46:13.618Z,17.3
2016-08-24T02:47:13.607Z,17.44
2016-08-24T02:48:14.303Z,17.33
2016-08-24T02:49:14.291Z,17.36
2016-08-24T02:50:14.290Z,17.38
2016-08-24T02:51:14.278Z,17.46
2016-08-24T02:52:14.973Z,17.38
2016-08-24T02:53:14.262Z,17.41
2016-08-24T02:54:14.971Z,17.41
2016-08-24T02:55:14.954Z,17.35
2016-08-24T02:56:14.243Z,17.29
2016-08-24T02:57:14.238Z,17.32
2016-08-24T02:58:14.230Z,17.28
2016-08-24T02:59:14.933Z,17.29
2016-08-24T03:00:14.204Z,17.29
2016-08-24T03:01:14.908Z,17.22
2016-08-24T03:02:14.237Z,17.23
2016-08-24T03:03:14.181Z,17.22
2016-08-24T03:04:14.167Z,17.15
2016-08-24T03:05:14.163Z,17.15
2016-08-24T03:06:14.866Z,17.17
2016-08-24T03:07:13.449Z,17.18
2016-08-24T03:08:14.156Z,17.14
2016-08-24T03:09:14.212Z,17.2
2016-08-24T03:10:14.126Z,17.14
2016-08-24T03:11:14.830Z,17.11
2016-08-24T03:12:14.099Z,17.1
2016-08-24T03:13:14.087Z,17.08
2016-08-24T03:14:14.085Z,17.08
2016-08-24T03:15:14.080Z,17.13
2016-08-24T03:16:13.358Z,17.13
2016-08-24T03:17:13.351Z,17.11
2016-08-24T03:18:14.759Z,17.03
2016-08-24T03:19:14.754Z,17.08
2016-08-24T03:20:13.327Z,17.13
2016-08-24T03:21:14.737Z,16.9
2016-08-24T03:22:14.015Z,16.99
2016-08-24T03:23:13.300Z,16.93
2016-08-24T03:24:13.997Z,16.92
2016-08-24T03:25:13.979Z,16.89
2016-08-24T03:26:13.975Z,16.99
2016-08-24T03:27:13.978Z,16.9
2016-08-24T03:28:13.958Z,16.95
2016-08-24T03:29:14.669Z,16.95
2016-08-24T03:30:14.657Z,16.86
2016-08-24T03:31:13.930Z,16.92
2016-08-24T03:32:13.927Z,16.95
2016-08-24T03:33:13.210Z,16.89
2016-08-24T03:34:13.201Z,16.77
2016-08-24T03:35:13.915Z,16.78
2016-08-24T03:36:13.185Z,16.77
2016-08-24T03:37:13.172Z,16.68
2016-08-24T03:38:13.877Z,16.7
2016-08-24T03:39:13.861Z,16.8
2016-08-24T03:40:13.856Z,16.7
2016-08-24T03:41:13.852Z,16.8
2016-08-24T03:42:13.852Z,16.81
2016-08-24T03:43:13.123Z,16.75
2016-08-24T03:44:13.122Z,16.74
2016-08-24T03:45:13.807Z,16.7
2016-08-24T03:46:14.503Z,16.7
2016-08-24T03:47:13.097Z,16.74
2016-08-24T03:48:13.789Z,16.6
2016-08-24T03:49:13.067Z,16.67
2016-08-24T03:50:13.773Z,16.71
2016-08-24T03:51:14.467Z,16.56
2016-08-24T03:52:13.042Z,16.62
2016-08-24T03:53:13.741Z,16.59
2016-08-24T03:54:13.938Z,16.63
2016-08-24T03:55:13.721Z,16.58
2016-08-24T03:56:13.713Z,16.56
2016-08-24T03:57:13.710Z,16.59
2016-08-24T03:58:12.987Z,16.6
2016-08-24T03:59:13.687Z,16.55
2016-08-24T04:00:14.389Z,16.5
2016-08-24T04:01:13.677Z,16.55
2016-08-24T04:02:12.952Z,16.56
2016-08-24T04:03:14.371Z,16.48
2016-08-24T04:04:13.690Z,16.52
2016-08-24T04:05:12.924Z,16.49
2016-08-24T04:06:13.622Z,16.5
2016-08-24T04:07:13.618Z,16.48
2016-08-24T04:08:13.616Z,16.5
2016-08-24T04:09:13.611Z,16.49
2016-08-24T04:10:14.314Z,16.45
2016-08-24T04:11:14.287Z,16.48
2016-08-24T04:12:12.884Z,16.5
2016-08-24T04:13:12.855Z,16.45
2016-08-24T04:14:13.556Z,16.55
2016-08-24T04:15:13.559Z,16.48
2016-08-24T04:16:14.241Z,16.44
2016-08-24T04:17:12.815Z,16.48
2016-08-24T04:18:12.809Z,16.4
2016-08-24T04:19:14.221Z,16.37
2016-08-24T04:20:12.791Z,16.41
2016-08-24T04:21:12.779Z,16.37
2016-08-24T04:22:13.477Z,16.41
2016-08-24T04:23:13.470Z,16.34
2016-08-24T04:24:12.763Z,16.35
2016-08-24T04:25:12.769Z,16.34
2016-08-24T04:26:13.446Z,16.38
2016-08-24T04:27:12.730Z,16.38
2016-08-24T04:28:13.426Z,16.35
2016-08-24T04:29:13.420Z,16.35
2016-08-24T04:30:12.700Z,16.33
2016-08-24T04:31:13.398Z,16.33
2016-08-24T04:32:13.409Z,16.31
2016-08-24T04:33:13.392Z,16.37
2016-08-24T04:34:12.665Z,16.35
2016-08-24T04:35:12.654Z,16.38
2016-08-24T04:36:13.368Z,16.37
2016-08-24T04:37:13.345Z,16.4
2016-08-24T04:38:12.627Z,16.35
2016-08-24T04:39:13.322Z,16.34
2016-08-24T04:40:12.608Z,16.34
2016-08-24T04:41:13.308Z,16.33
2016-08-24T04:42:13.297Z,16.37
2016-08-24T04:43:12.587Z,16.37
2016-08-24T04:44:14.335Z,16.31
2016-08-24T04:45:14.001Z,16.26
2016-08-24T04:46:13.276Z,16.31
2016-08-24T04:47:12.550Z,16.31
2016-08-24T04:48:13.246Z,16.25
2016-08-24T04:49:12.526Z,16.31
2016-08-24T04:50:12.521Z,16.35
2016-08-24T04:51:13.218Z,16.34
2016-08-24T04:52:13.919Z,16.4
2016-08-24T04:53:13.906Z,16.38
2016-08-24T04:54:12.493Z,16.44
2016-08-24T04:55:13.183Z,16.35
2016-08-24T04:56:13.174Z,16.35
2016-08-24T04:57:12.453Z,16.33
2016-08-24T04:58:13.153Z,16.34
2016-08-24T04:59:13.139Z,16.38
2016-08-24T05:00:12.428Z,16.41
2016-08-24T05:01:13.849Z,16.42
2016-08-24T05:02:12.408Z,16.48
2016-08-24T05:03:13.127Z,16.52
2016-08-24T05:04:13.806Z,16.49
2016-08-24T05:05:12.376Z,16.53
2016-08-24T05:06:12.375Z,16.52
2016-08-24T05:07:13.078Z,16.53
2016-08-24T05:08:12.353Z,16.45
2016-08-24T05:09:13.761Z,16.53
2016-08-24T05:10:13.055Z,16.52
2016-08-24T05:11:12.323Z,16.49
2016-08-24T05:12:13.041Z,16.52
2016-08-24T05:13:13.016Z,16.58
2016-08-24T05:14:13.003Z,16.6
2016-08-24T05:15:13.002Z,16.65
2016-08-24T05:16:12.285Z,16.59
2016-08-24T05:17:12.978Z,16.67
2016-08-24T05:18:12.265Z,16.59
2016-08-24T05:19:12.969Z,16.62
2016-08-24T05:20:12.957Z,16.68
2016-08-24T05:21:12.250Z,16.67
2016-08-24T05:22:12.230Z,16.68
2016-08-24T05:23:12.926Z,16.7
2016-08-24T05:24:13.626Z,16.7
2016-08-24T05:25:12.912Z,16.73
2016-08-24T05:26:12.896Z,16.75
2016-08-24T05:27:12.184Z,16.74
2016-08-24T05:28:12.887Z,16.78
2016-08-24T05:29:12.868Z,16.81
2016-08-24T05:30:13.158Z,16.62
2016-08-24T05:31:12.865Z,16.81
2016-08-24T05:32:13.557Z,16.78
2016-08-24T05:33:13.548Z,16.74
2016-08-24T05:34:12.829Z,16.73
2016-08-24T05:35:13.528Z,16.9
2016-08-24T05:36:12.101Z,16.85
2016-08-24T05:37:13.513Z,16.89
2016-08-24T05:38:13.500Z,16.89
2016-08-24T05:39:12.790Z,16.99
2016-08-24T05:40:13.539Z,16.95
2016-08-24T05:41:12.080Z,17.03
2016-08-24T05:42:12.059Z,17.03
2016-08-24T05:43:12.041Z,17.06
2016-08-24T05:44:13.453Z,17.08
2016-08-24T05:45:12.735Z,17.07
2016-08-24T05:46:12.025Z,17.17
2016-08-24T05:47:12.716Z,17.14
2016-08-24T05:48:12.708Z,17.11
2016-08-24T05:49:12.697Z,17.18
2016-08-24T05:50:12.688Z,17.29
2016-08-24T05:51:12.681Z,17.29
2016-08-24T05:52:11.964Z,17.33
2016-08-24T05:53:12.661Z,17.28
2016-08-24T05:54:12.855Z,17.41
2016-08-24T05:55:12.648Z,17.35
2016-08-24T05:56:11.924Z,17.46
2016-08-24T05:57:12.649Z,17.5
2016-08-24T05:58:12.618Z,17.55
2016-08-24T05:59:11.915Z,17.55
2016-08-24T06:00:13.306Z,17.57
2016-08-24T06:01:11.893Z,17.69
2016-08-24T06:02:12.589Z,17.67
2016-08-24T06:03:13.290Z,17.73
2016-08-24T06:04:12.570Z,17.74
2016-08-24T06:05:11.858Z,17.84
2016-08-24T06:06:12.549Z,17.84
2016-08-24T06:07:12.554Z,17.85
2016-08-24T06:08:13.242Z,17.92
2016-08-24T06:09:11.817Z,18.03
2016-08-24T06:10:11.810Z,17.99
2016-08-24T06:11:12.512Z,18.17
2016-08-24T06:12:12.518Z,18.19
2016-08-24T06:13:11.787Z,18.22
2016-08-24T06:14:12.488Z,18.27
2016-08-24T06:15:11.771Z,18.31
2016-08-24T06:16:12.469Z,18.39
2016-08-24T06:17:12.473Z,18.4
2016-08-24T06:18:11.747Z,18.43
2016-08-24T06:19:11.753Z,18.52
2016-08-24T06:20:12.438Z,18.5
2016-08-24T06:21:12.425Z,18.57
2016-08-24T06:22:12.423Z,18.55
2016-08-24T06:23:12.416Z,18.64
2016-08-24T06:24:12.402Z,18.62
2016-08-24T06:25:11.690Z,18.7
2016-08-24T06:26:12.391Z,18.73
2016-08-24T06:27:12.387Z,18.83
2016-08-24T06:28:12.374Z,18.9
2016-08-24T06:29:12.359Z,18.9
2016-08-24T06:30:12.355Z,18.92
2016-08-24T06:31:11.642Z,18.97
2016-08-24T06:32:12.344Z,18.98
2016-08-24T06:33:13.038Z,19.02
2016-08-24T06:34:13.034Z,19.02
2016-08-24T06:35:11.606Z,19.11
2016-08-24T06:36:12.305Z,19.06
2016-08-24T06:37:11.593Z,19.14
2016-08-24T06:38:12.290Z,19.21
2016-08-24T06:39:12.281Z,19.2
2016-08-24T06:40:12.277Z,19.33
2016-08-24T06:41:11.564Z,19.33
2016-08-24T06:42:12.972Z,19.46
2016-08-24T06:43:11.547Z,19.48
2016-08-24T06:44:12.246Z,19.61
2016-08-24T06:45:12.240Z,19.6
2016-08-24T06:46:11.528Z,19.66
2016-08-24T06:47:11.515Z,19.7
2016-08-24T06:48:12.223Z,19.73
2016-08-24T06:49:12.915Z,19.78
2016-08-24T06:50:11.496Z,19.8
2016-08-24T06:51:12.197Z,19.78
2016-08-24T06:52:11.482Z,19.87
2016-08-24T06:53:12.182Z,19.98
2016-08-24T06:54:11.470Z,20.03
2016-08-24T06:55:11.453Z,19.97
2016-08-24T06:56:12.155Z,19.98
2016-08-24T06:57:11.441Z,19.97
2016-08-24T06:58:11.443Z,20.05
2016-08-24T06:59:11.433Z,20.1
2016-08-24T07:00:11.425Z,20.13
2016-08-24T07:01:12.120Z,20.18
2016-08-24T07:02:12.117Z,20.2
2016-08-24T07:03:11.419Z,20.23
2016-08-24T07:04:12.115Z,20.31
2016-08-24T07:05:12.099Z,20.28
2016-08-24T07:06:12.094Z,20.25
2016-08-24T07:07:12.788Z,20.41
2016-08-24T07:08:11.365Z,20.38
2016-08-24T07:09:12.768Z,20.39
2016-08-24T07:10:11.351Z,20.39
2016-08-24T07:11:12.752Z,20.43
2016-08-24T07:12:12.038Z,20.5
2016-08-24T07:13:12.031Z,20.49
2016-08-24T07:14:12.027Z,20.61
2016-08-24T07:15:12.731Z,20.59
2016-08-24T07:16:12.013Z,20.72
2016-08-24T07:17:12.004Z,20.72
2016-08-24T07:18:11.291Z,20.66
2016-08-24T07:19:11.282Z,20.83
2016-08-24T07:20:11.981Z,20.84
2016-08-24T07:21:12.684Z,20.91
2016-08-24T07:22:11.970Z,20.96
2016-08-24T07:23:11.254Z,20.99
2016-08-24T07:24:11.252Z,21.01
2016-08-24T07:25:11.952Z,21.08
2016-08-24T07:26:11.947Z,21.11
2016-08-24T07:27:11.933Z,21.08
2016-08-24T07:28:11.930Z,21.08
2016-08-24T07:29:12.624Z,21.21
2016-08-24T07:30:11.921Z,21.26
2016-08-24T07:31:11.909Z,21.27
2016-08-24T07:32:11.905Z,21.35
2016-08-24T07:33:11.187Z,21.45
2016-08-24T07:34:11.179Z,21.48
2016-08-24T07:35:11.877Z,21.48
2016-08-24T07:36:11.877Z,21.64
2016-08-24T07:37:11.162Z,21.69
2016-08-24T07:38:11.868Z,21.66
2016-08-24T07:39:11.857Z,21.76
2016-08-24T07:40:12.554Z,21.74
2016-08-24T07:41:11.131Z,21.79
2016-08-24T07:42:11.837Z,21.92
2016-08-24T07:43:11.127Z,21.95
2016-08-24T07:44:11.823Z,21.91
2016-08-24T07:45:11.107Z,21.88
2016-08-24T07:46:11.812Z,22.02
2016-08-24T07:47:11.813Z,22.02
2016-08-24T07:48:11.090Z,22.01
2016-08-24T07:49:11.083Z,22.07
2016-08-24T07:50:11.795Z,22.12
2016-08-24T07:51:11.773Z,22.2
2016-08-24T07:52:11.774Z,22.27
2016-08-24T07:53:11.055Z,22.32
2016-08-24T07:54:11.959Z,22.32
2016-08-24T07:55:11.751Z,22.43
2016-08-24T07:56:11.043Z,22.49
2016-08-24T07:57:11.736Z,22.57
2016-08-24T07:58:12.449Z,22.56
2016-08-24T07:59:11.727Z,22.64
2016-08-24T08:00:11.012Z,22.6
2016-08-24T08:01:11.720Z,22.71
2016-08-24T08:02:12.416Z,22.74
2016-08-24T08:03:12.405Z,22.71
2016-08-24T08:04:10.994Z,22.87
2016-08-24T08:05:10.983Z,22.86
2016-08-24T08:06:11.686Z,22.87
2016-08-24T08:07:10.970Z,22.99
2016-08-24T08:08:10.964Z,22.96
2016-08-24T08:09:11.667Z,22.94
2016-08-24T08:10:10.953Z,23.04
2016-08-24T08:11:11.659Z,23.17
2016-08-24T08:12:11.647Z,23.14
2016-08-24T08:13:11.644Z,23.29
2016-08-24T08:14:11.634Z,23.29
2016-08-24T08:15:11.630Z,23.32
2016-08-24T08:16:11.024Z,23.35
2016-08-24T08:17:12.332Z,23.86
2016-08-24T08:18:11.611Z,24.97
2016-08-24T08:19:10.903Z,26.11
2016-08-24T08:20:10.894Z,26.98
2016-08-24T08:21:10.892Z,27.46
2016-08-24T08:22:10.892Z,27.54
2016-08-24T08:23:10.876Z,27.31
2016-08-24T08:24:11.583Z,26.98
2016-08-24T08:25:11.580Z,26.54
2016-08-24T08:26:10.863Z,26.35
2016-08-24T08:27:10.864Z,26.2
2016-08-24T08:28:10.858Z,26.2
2016-08-24T08:29:12.264Z,26.31
2016-08-24T08:30:10.848Z,26.43
2016-08-24T08:31:11.555Z,26.59
2016-08-24T08:32:11.543Z,26.84
2016-08-24T08:33:11.544Z,27.23
2016-08-24T08:34:10.838Z,27.99
2016-08-24T08:35:11.531Z,28.78
2016-08-24T08:36:10.828Z,29.26
2016-08-24T08:37:11.522Z,29.63
2016-08-24T08:38:10.812Z,29.97
2016-08-24T08:39:11.517Z,30.12
2016-08-24T08:40:10.809Z,30.11
2016-08-24T08:41:11.506Z,30.21
2016-08-24T08:42:10.799Z,30.4
2016-08-24T08:43:10.793Z,30.4
2016-08-24T08:44:10.787Z,30.53
2016-08-24T08:45:10.787Z,30.15
2016-08-24T08:46:11.492Z,29.74
2016-08-24T08:47:10.801Z,29.43
2016-08-24T08:48:10.770Z,29.11
2016-08-24T08:49:11.479Z,28.72
2016-08-24T08:50:12.181Z,28.38
2016-08-24T08:51:11.474Z,28.19
2016-08-24T08:52:11.477Z,28.03
2016-08-24T08:53:11.459Z,27.84
2016-08-24T08:54:10.750Z,27.71
2016-08-24T08:55:11.450Z,27.57
2016-08-24T08:56:11.456Z,27.42
2016-08-24T08:57:11.442Z,27.33
2016-08-24T08:58:11.444Z,27.29
2016-08-24T08:59:10.728Z,27.19
2016-08-24T09:00:11.427Z,27.1
2016-08-24T09:01:10.719Z,27.04
2016-08-24T09:02:11.418Z,26.86
2016-08-24T09:03:10.715Z,26.77
2016-08-24T09:04:10.705Z,26.69
2016-08-24T09:05:11.409Z,26.64
2016-08-24T09:06:10.698Z,26.57
2016-08-24T09:07:10.690Z,26.54
2016-08-24T09:08:12.101Z,26.57
2016-08-24T09:09:10.678Z,26.54
2016-08-24T09:10:11.394Z,26.69
2016-08-24T09:11:12.088Z,26.87
2016-08-24T09:12:11.381Z,26.83
2016-08-24T09:13:10.664Z,26.83
2016-08-24T09:14:11.373Z,26.94
2016-08-24T09:15:11.367Z,26.95
2016-08-24T09:16:10.704Z,27.09
2016-08-24T09:17:11.353Z,27.06
2016-08-24T09:18:10.649Z,27.11
2016-08-24T09:19:11.348Z,27.02
2016-08-24T09:20:10.634Z,27.04
2016-08-24T09:21:10.632Z,27.04
2016-08-24T09:22:10.624Z,27.11
2016-08-24T09:23:12.040Z,26.99
2016-08-24T09:24:10.621Z,27.06
2016-08-24T09:25:11.318Z,26.98
2016-08-24T09:26:11.317Z,27.1
2016-08-24T09:27:10.606Z,27.11
2016-08-24T09:28:11.306Z,27.01
2016-08-24T09:29:11.305Z,27.14
2016-08-24T09:30:10.590Z,27.17
2016-08-24T09:31:10.591Z,27.09
2016-08-24T09:32:10.594Z,27.14
2016-08-24T09:33:11.290Z,27.2
2016-08-24T09:34:11.282Z,27.2
2016-08-24T09:35:10.570Z,27.26
2016-08-24T09:36:11.274Z,27.21
2016-08-24T09:37:11.272Z,27.38
2016-08-24T09:38:10.555Z,27.35
2016-08-24T09:39:10.551Z,27.38
2016-08-24T09:40:10.547Z,27.41
2016-08-24T09:41:11.247Z,27.46
2016-08-24T09:42:11.960Z,27.43
2016-08-24T09:43:11.248Z,27.46
2016-08-24T09:44:11.235Z,27.48
2016-08-24T09:45:10.524Z,27.54
2016-08-24T09:46:10.518Z,27.41
2016-08-24T09:47:10.512Z,27.43
2016-08-24T09:48:11.227Z,27.53
2016-08-24T09:49:11.926Z,27.58
2016-08-24T09:50:11.208Z,27.69
2016-08-24T09:51:10.499Z,27.66
2016-08-24T09:52:11.202Z,27.71
2016-08-24T09:53:11.195Z,27.64
2016-08-24T09:54:11.392Z,27.71
2016-08-24T09:55:10.483Z,27.74
2016-08-24T09:56:10.475Z,27.69
2016-08-24T09:57:11.180Z,27.69
2016-08-24T09:58:11.178Z,27.74
2016-08-24T09:59:10.459Z,27.79
2016-08-24T10:00:11.872Z,27.74
2016-08-24T10:01:11.871Z,27.77
2016-08-24T10:02:10.462Z,27.73
2016-08-24T10:03:10.753Z,27.85
2016-08-24T10:04:11.866Z,27.89
2016-08-24T10:05:11.852Z,27.98
2016-08-24T10:06:11.147Z,27.91
2016-08-24T10:07:10.425Z,28.04
2016-08-24T10:08:11.842Z,28.06
2016-08-24T10:09:11.119Z,28.04
2016-08-24T10:10:11.827Z,28.03
2016-08-24T10:11:11.114Z,28.07
2016-08-24T10:12:10.401Z,28.09
2016-08-24T10:13:11.105Z,28.07
2016-08-24T10:14:11.101Z,28.04
2016-08-24T10:15:11.098Z,28.06
2016-08-24T10:16:11.090Z,28.11
2016-08-24T10:17:11.092Z,28.1
2016-08-24T10:18:11.081Z,28.1
2016-08-24T10:19:11.785Z,28.21
2016-08-24T10:20:11.070Z,28.29
2016-08-24T10:21:11.160Z,28.32
2016-08-24T10:22:11.062Z,28.32
2016-08-24T10:23:11.057Z,28.44
2016-08-24T10:24:11.055Z,28.43
2016-08-24T10:25:10.344Z,28.36
2016-08-24T10:26:10.352Z,28.4
2016-08-24T10:27:11.042Z,28.32
2016-08-24T10:28:10.331Z,28.51
2016-08-24T10:29:11.737Z,28.35
2016-08-24T10:30:10.324Z,28.33
2016-08-24T10:31:10.314Z,28.48
2016-08-24T10:32:10.313Z,28.53
2016-08-24T10:33:11.018Z,28.51
2016-08-24T10:34:11.012Z,28.66
2016-08-24T10:35:10.299Z,28.77
2016-08-24T10:36:10.295Z,28.72
2016-08-24T10:37:11.709Z,28.91
2016-08-24T10:38:10.285Z,29.13
2016-08-24T10:39:10.992Z,29.26
2016-08-24T10:40:10.280Z,29.49
2016-08-24T10:41:10.977Z,29.62
2016-08-24T10:42:10.983Z,29.74
2016-08-24T10:43:10.989Z,29.89
2016-08-24T10:44:10.262Z,29.96
2016-08-24T10:45:11.670Z,30.11
2016-08-24T10:46:10.960Z,30.18
2016-08-24T10:47:10.257Z,30.3
2016-08-24T10:48:10.245Z,30.34
2016-08-24T10:49:10.242Z,30.56
2016-08-24T10:50:10.943Z,30.61
2016-08-24T10:51:10.943Z,30.62
2016-08-24T10:52:10.946Z,30.71
2016-08-24T10:53:11.644Z,30.84
2016-08-24T10:54:10.941Z,30.89
2016-08-24T10:55:10.928Z,30.84
2016-08-24T10:56:10.925Z,31.01
2016-08-24T10:57:10.930Z,31.09
2016-08-24T10:58:11.622Z,31.11
2016-08-24T10:59:11.628Z,31.28
2016-08-24T11:00:10.917Z,31.28
2016-08-24T11:01:11.619Z,31.4
2016-08-24T11:02:10.919Z,31.42
2016-08-24T11:03:10.915Z,31.61
2016-08-24T11:04:10.924Z,31.88
2016-08-24T11:05:10.194Z,32.02
2016-08-24T11:06:10.905Z,32.07
2016-08-24T11:07:10.905Z,32.07
2016-08-24T11:08:11.606Z,32.1
2016-08-24T11:09:10.953Z,32.17
2016-08-24T11:10:10.192Z,32.17
2016-08-24T11:11:10.901Z,32.21
2016-08-24T11:12:10.189Z,32.49
2016-08-24T11:13:10.901Z,32.77
2016-08-24T11:14:10.213Z,32.77
2016-08-24T11:15:10.196Z,33.07
2016-08-24T11:16:10.194Z,33.22
2016-08-24T11:17:10.190Z,33.45
2016-08-24T11:18:10.200Z,33.79
2016-08-24T11:19:10.202Z,34.11
2016-08-24T11:20:10.909Z,34.26
2016-08-24T11:21:11.622Z,34.48
2016-08-24T11:22:10.923Z,34.7
2016-08-24T11:23:10.921Z,34.96
2016-08-24T11:24:10.217Z,35.28
2016-08-24T11:25:11.637Z,35.48
2016-08-24T11:26:10.937Z,35.76
2016-08-24T11:27:10.946Z,35.89
2016-08-24T11:28:10.943Z,36.15
2016-08-24T11:29:10.942Z,36.36
2016-08-24T11:30:11.653Z,36.49
2016-08-24T11:31:10.245Z,36.57
2016-08-24T11:32:10.966Z,36.48
2016-08-24T11:33:10.267Z,36.68
2016-08-24T11:34:11.683Z,36.94
2016-08-24T11:35:10.975Z,36.99
2016-08-24T11:36:10.270Z,37.13
2016-08-24T11:37:10.275Z,37.36
2016-08-24T11:38:11.697Z,37.48
2016-08-24T11:39:10.987Z,37.67
2016-08-24T11:40:10.311Z,37.77
2016-08-24T11:41:10.293Z,38.04
2016-08-24T11:42:11.003Z,37.96
2016-08-24T11:43:10.358Z,38.07
2016-08-24T11:44:11.026Z,38.2
2016-08-24T11:45:10.317Z,38.42
2016-08-24T11:46:10.320Z,38.55
2016-08-24T11:47:10.328Z,38.52
2016-08-24T11:48:11.044Z,38.73
2016-08-24T11:49:10.341Z,38.8
2016-08-24T11:50:11.056Z,38.89
2016-08-24T11:51:11.060Z,39.06
2016-08-24T11:52:11.118Z,38.96
2016-08-24T11:53:10.366Z,39.05
2016-08-24T11:54:10.373Z,39.08
2016-08-24T11:55:11.797Z,39.22
2016-08-24T11:56:10.388Z,39.27
2016-08-24T11:57:11.097Z,39.39
2016-08-24T11:58:11.158Z,39.39
2016-08-24T11:59:11.131Z,39.32
2016-08-24T12:00:10.437Z,39.46
2016-08-24T12:01:10.427Z,39.58
2016-08-24T12:02:11.137Z,39.25
2016-08-24T12:03:11.152Z,39.28
2016-08-24T12:04:11.908Z,39.18
2016-08-24T12:05:10.454Z,39.02
2016-08-24T12:06:11.168Z,39.2
2016-08-24T12:07:11.176Z,39.47
2016-08-24T12:08:10.473Z,39.61
2016-08-24T12:09:10.533Z,39.59
2016-08-24T12:10:11.915Z,39.76
2016-08-24T12:11:10.495Z,40.1
2016-08-24T12:12:11.215Z,40.34
2016-08-24T12:13:11.217Z,40.54
2016-08-24T12:14:11.226Z,40.56
2016-08-24T12:15:11.942Z,40.8
2016-08-24T12:16:10.534Z,40.83
2016-08-24T12:17:10.539Z,41.03
2016-08-24T12:18:10.548Z,41.03
2016-08-24T12:19:10.564Z,41.24
2016-08-24T12:20:10.566Z,41.21
2016-08-24T12:21:11.305Z,41.25
2016-08-24T12:22:12.246Z,41.27
2016-08-24T12:23:12.008Z,41.24
2016-08-24T12:24:10.606Z,41.28
2016-08-24T12:25:10.612Z,41.58
2016-08-24T12:26:11.335Z,41.85
2016-08-24T12:27:11.351Z,41.63
2016-08-24T12:28:12.058Z,41.55
2016-08-24T12:29:10.647Z,41.37
2016-08-24T12:30:10.654Z,41.46
2016-08-24T12:31:11.372Z,41.44
2016-08-24T12:32:12.082Z,41.63
2016-08-24T12:33:10.680Z,41.68
2016-08-24T12:34:12.102Z,41.71
2016-08-24T12:35:10.706Z,41.9
2016-08-24T12:36:10.707Z,42.23
2016-08-24T12:37:10.714Z,42.16
2016-08-24T12:38:10.717Z,41.93
2016-08-24T12:39:11.439Z,41.52
2016-08-24T12:40:11.448Z,41.03
2016-08-24T12:41:11.459Z,40.84
2016-08-24T12:42:11.486Z,40.76
2016-08-24T12:43:12.185Z,40.83
2016-08-24T12:44:10.773Z,40.99
2016-08-24T12:45:11.499Z,40.99
2016-08-24T12:46:12.213Z,41.1
2016-08-24T12:47:11.515Z,41.18
2016-08-24T12:48:12.226Z,41.41
2016-08-24T12:49:11.539Z,41.21
2016-08-24T12:50:10.827Z,41.47
2016-08-24T12:51:10.834Z,41.39
2016-08-24T12:52:12.275Z,41.21
2016-08-24T12:53:10.859Z,41.15
2016-08-24T12:54:10.861Z,41
2016-08-24T12:55:12.282Z,40.86